MSC Gina — 3FLY9 — position and weather

sailwx.info

Track history (hours):
 
Tides and Currents Weather Stations Pressure Air Temp Water Temp Dewpoint Dewpoint Depression Visibility Wind Speed Wind Dir Waves Ship Positions

MSC Gina

Last reported at 2015-Mar-05 18:32 UTC. Time now 2015-Mar-06 02:50 UTC.
Position N 37°22' W 023°15'.

Length 259 m; draft 11 m.

Type: Ship (hazmat cat A). MMSI: 357542000.

Date/timePositionNaut miles runAvg speedWind from/ knotsBaromVisibWave heightAir tempDewpointWater temp
2015-Mar-05 18:32N 37°22' W 023°15'1919.4
2015-Mar-05 17:33N 37°25' W 023°39'1919.1
2015-Mar-05 16:33N 37°26' W 024°03'1919.4
2015-Mar-05 15:34N 37°29' W 024°27'2019.7
2015-Mar-05 14:33N 37°31' W 024°52'2019.7
2015-Mar-05 13:33N 37°33' W 025°17'2019.8
2015-Mar-05 12:33N 37°35' W 025°41'2019.9
2015-Mar-05 11:33N 37°37' W 026°06'2019.7
2015-Mar-05 10:33N 37°39' W 026°31'1919.4
2015-Mar-05 09:33N 37°43' W 026°55'2019.8
2015-Mar-05 08:33N 37°49' W 027°19'2019.8
2015-Mar-05 07:33N 37°55' W 027°43'2020.0
2015-Mar-05 06:33N 38°01' W 028°07'2020.0
2015-Mar-05 05:33N 38°07' W 028°32'2019.9
2015-Mar-05 04:34N 38°13' W 028°56'2019.7
2015-Mar-05 03:33N 38°19' W 029°20'1919.4
2015-Mar-05 02:33N 38°24' W 029°43'2019.6
2015-Mar-05 01:33N 38°30' W 030°07'2020.0
2015-Mar-05 00:33N 38°37' W 030°32'2020.3
2015-Mar-04 23:34N 38°43' W 030°56'2020.1
2015-Mar-04 22:33N 38°49' W 031°21'  
2015-Feb-27 22:33N 46°36' W 071°59'1312.6
2015-Feb-27 21:33N 46°30' W 072°14'1010.3
2015-Feb-27 20:33N 46°23' W 072°26'8 7.6
2015-Feb-27 19:33N 46°18' W 072°34'9 8.6
2015-Feb-27 18:33N 46°14' W 072°45'9 8.7
2015-Feb-27 17:33N 46°10' W 072°56'9 8.4
2015-Feb-27 16:30N 46°04' W 073°05'3110.5
2015-Feb-27 13:32N 45°38' W 073°30'  
2015-Feb-24 12:31N 45°40' W 073°28'39 9.6
2015-Feb-24 08:27N 46°11' W 072°54'8 9.4
2015-Feb-24 07:33N 46°15' W 072°44'8 8.4
2015-Feb-24 06:33N 46°19' W 072°33'8 7.8
2015-Feb-24 05:33N 46°24' W 072°24'9 9.1
2015-Feb-24 04:33N 46°30' W 072°14'  
Track history (hours):
 
Tides and Currents Weather Stations Pressure Air Temp Water Temp Dewpoint Dewpoint Depression Visibility Wind Speed Wind Dir Waves Ship Positions

MSC Gina

Last reported at 2015-Mar-05 18:32 UTC. Time now 2015-Mar-06 02:50 UTC.
Position N 37°22' W 023°15'.

Length 259 m; draft 11 m.

Type: Ship (hazmat cat A). MMSI: 357542000.

Date/timePositionNaut miles runAvg speedWind from/ knotsBaromVisibWave heightAir tempDewpointWater temp
2015-Mar-05 18:32N 37°22' W 023°15'1919.4
2015-Mar-05 17:33N 37°25' W 023°39'1919.1
2015-Mar-05 16:33N 37°26' W 024°03'1919.4
2015-Mar-05 15:34N 37°29' W 024°27'2019.7
2015-Mar-05 14:33N 37°31' W 024°52'2019.7
2015-Mar-05 13:33N 37°33' W 025°17'2019.8
2015-Mar-05 12:33N 37°35' W 025°41'2019.9
2015-Mar-05 11:33N 37°37' W 026°06'2019.7
2015-Mar-05 10:33N 37°39' W 026°31'1919.4
2015-Mar-05 09:33N 37°43' W 026°55'2019.8
2015-Mar-05 08:33N 37°49' W 027°19'2019.8
2015-Mar-05 07:33N 37°55' W 027°43'2020.0
2015-Mar-05 06:33N 38°01' W 028°07'2020.0
2015-Mar-05 05:33N 38°07' W 028°32'2019.9
2015-Mar-05 04:34N 38°13' W 028°56'2019.7
2015-Mar-05 03:33N 38°19' W 029°20'1919.4
2015-Mar-05 02:33N 38°24' W 029°43'2019.6
2015-Mar-05 01:33N 38°30' W 030°07'2020.0
2015-Mar-05 00:33N 38°37' W 030°32'2020.3
2015-Mar-04 23:34N 38°43' W 030°56'2020.1
2015-Mar-04 22:33N 38°49' W 031°21'  
2015-Feb-27 22:33N 46°36' W 071°59'1312.6
2015-Feb-27 21:33N 46°30' W 072°14'1010.3
2015-Feb-27 20:33N 46°23' W 072°26'8 7.6
2015-Feb-27 19:33N 46°18' W 072°34'9 8.6
2015-Feb-27 18:33N 46°14' W 072°45'9 8.7
2015-Feb-27 17:33N 46°10' W 072°56'9 8.4
2015-Feb-27 16:30N 46°04' W 073°05'3110.5
2015-Feb-27 13:32N 45°38' W 073°30'  
2015-Feb-24 12:31N 45°40' W 073°28'39 9.6
2015-Feb-24 08:27N 46°11' W 072°54'8 9.4
2015-Feb-24 07:33N 46°15' W 072°44'8 8.4
2015-Feb-24 06:33N 46°19' W 072°33'8 7.8
2015-Feb-24 05:33N 46°24' W 072°24'9 9.1
2015-Feb-24 04:33N 46°30' W 072°14'  

Dump ship's entire track history